createdAt,value
2023-11-26T00:02:09.046Z,3.60
2023-11-26T00:04:37.205Z,3.20
2023-11-26T00:07:05.472Z,3.40
2023-11-26T00:09:36.609Z,3.30
2023-11-26T00:12:06.009Z,3.30
2023-11-26T00:14:33.872Z,3.50
2023-11-26T00:17:01.867Z,3.30
2023-11-26T00:19:31.164Z,3.40
2023-11-26T00:21:58.934Z,3.30
2023-11-26T00:24:29.245Z,3.20
2023-11-26T00:26:57.229Z,3.10
2023-11-26T00:29:25.140Z,3.10
2023-11-26T00:31:53.262Z,3.10
2023-11-26T00:34:21.116Z,3.00
2023-11-26T00:36:50.291Z,3.00
2023-11-26T00:39:18.402Z,2.90
2023-11-26T00:41:47.236Z,2.90
2023-11-26T00:44:15.035Z,2.90
2023-11-26T00:46:42.997Z,3.00
2023-11-26T00:49:10.773Z,3.00
2023-11-26T00:51:38.591Z,3.20
2023-11-26T00:54:09.545Z,3.20
2023-11-26T00:56:37.705Z,2.90
2023-11-26T00:59:05.586Z,3.20
2023-11-26T01:01:33.963Z,3.10
2023-11-26T01:04:02.087Z,3.10
2023-11-26T01:06:29.952Z,3.00
2023-11-26T01:08:57.688Z,3.10
2023-11-26T01:11:26.931Z,2.60
2023-11-26T01:13:54.771Z,3.20
2023-11-26T01:16:22.504Z,2.90
2023-11-26T01:18:50.334Z,2.80
2023-11-26T01:21:19.080Z,3.00
2023-11-26T01:23:47.681Z,3.10
2023-11-26T01:26:16.004Z,3.00
2023-11-26T01:28:45.231Z,3.00
2023-11-26T01:31:13.065Z,3.10
2023-11-26T01:33:41.055Z,2.80
2023-11-26T01:36:09.693Z,3.10
2023-11-26T01:38:37.738Z,3.00
2023-11-26T01:41:06.353Z,2.80
2023-11-26T01:43:34.211Z,2.90
2023-11-26T01:46:09.258Z,2.80
2023-11-26T01:48:37.837Z,2.70
2023-11-26T01:51:07.339Z,3.30
2023-11-26T01:53:35.375Z,2.90
2023-11-26T01:56:03.662Z,2.50
2023-11-26T01:58:32.057Z,2.80
2023-11-26T02:00:59.949Z,2.90
2023-11-26T02:03:29.246Z,2.70
2023-11-26T02:05:57.144Z,2.80
2023-11-26T02:08:25.912Z,2.90
2023-11-26T02:10:53.749Z,2.70
2023-11-26T02:13:21.698Z,2.80
2023-11-26T02:15:49.739Z,3.00
2023-11-26T02:18:20.286Z,2.60
2023-11-26T02:20:49.793Z,2.90
2023-11-26T02:23:17.667Z,2.60
2023-11-26T02:25:46.838Z,2.80
2023-11-26T02:28:14.830Z,2.90
2023-11-26T02:30:42.629Z,2.70
2023-11-26T02:33:10.485Z,2.80
2023-11-26T02:35:38.443Z,3.00
2023-11-26T02:38:06.460Z,2.80
2023-11-26T02:40:34.256Z,2.90
2023-11-26T02:43:04.110Z,2.70
2023-11-26T02:45:31.902Z,2.80
2023-11-26T02:47:59.758Z,3.00
2023-11-26T02:50:27.617Z,3.10
2023-11-26T02:52:55.467Z,2.90
2023-11-26T02:55:23.309Z,2.80
2023-11-26T02:57:51.159Z,3.00
2023-11-26T03:00:21.660Z,3.10
2023-11-26T03:02:50.078Z,3.30
2023-11-26T03:05:19.945Z,3.20
2023-11-26T03:07:48.679Z,3.30
2023-11-26T03:10:34.505Z,3.40
2023-11-26T03:13:21.814Z,3.40
2023-11-26T03:15:51.066Z,3.40
2023-11-26T03:18:18.969Z,3.40
2023-11-26T03:20:47.371Z,3.50
2023-11-26T03:23:15.802Z,3.30
2023-11-26T03:25:43.637Z,3.60
2023-11-26T03:28:11.910Z,3.50
2023-11-26T03:30:39.702Z,3.50
2023-11-26T03:33:10.719Z,3.50
2023-11-26T03:35:38.935Z,3.70
2023-11-26T03:38:06.785Z,3.60
2023-11-26T03:40:34.588Z,3.60
2023-11-26T03:43:02.784Z,3.60
2023-11-26T03:45:31.154Z,3.70
2023-11-26T03:47:59.138Z,3.60
2023-11-26T03:50:29.728Z,3.70
2023-11-26T03:52:57.682Z,3.50
2023-11-26T03:55:25.657Z,3.60
2023-11-26T03:57:52.936Z,3.60
2023-11-26T04:00:20.931Z,3.60
2023-11-26T04:02:49.388Z,3.60
2023-11-26T04:05:17.386Z,3.60
2023-11-26T04:07:47.291Z,3.10
2023-11-26T04:10:24.078Z,3.70
2023-11-26T04:12:55.703Z,3.50
2023-11-26T04:15:23.967Z,3.50
2023-11-26T04:17:52.085Z,3.40
2023-11-26T04:20:20.086Z,3.10
2023-11-26T04:22:49.336Z,3.40
2023-11-26T04:25:17.341Z,3.10
2023-11-26T04:27:45.909Z,3.00
2023-11-26T04:30:14.414Z,3.00
2023-11-26T04:32:42.381Z,2.90
2023-11-26T04:35:10.588Z,2.50
2023-11-26T04:37:38.360Z,2.50
2023-11-26T04:40:11.669Z,2.90
2023-11-26T04:42:39.436Z,2.60
2023-11-26T04:45:08.984Z,2.80
2023-11-26T04:47:37.411Z,2.70
2023-11-26T04:50:06.034Z,2.70
2023-11-26T04:52:33.797Z,2.80
2023-11-26T04:55:02.042Z,2.80
2023-11-26T04:57:31.227Z,2.90
2023-11-26T04:59:59.201Z,2.80
2023-11-26T05:02:30.277Z,3.10
2023-11-26T05:04:58.180Z,2.70
2023-11-26T05:07:26.007Z,3.10
2023-11-26T05:09:53.779Z,3.40
2023-11-26T05:12:21.767Z,3.30
2023-11-26T05:14:51.180Z,3.20
2023-11-26T05:17:19.083Z,3.20
2023-11-26T05:19:47.070Z,3.20
2023-11-26T05:22:14.982Z,3.30
2023-11-26T05:24:42.815Z,3.30
2023-11-26T05:27:10.556Z,3.20
2023-11-26T05:29:38.367Z,3.20
2023-11-26T05:32:08.114Z,3.10
2023-11-26T05:34:35.861Z,2.90
2023-11-26T05:37:04.606Z,3.00
2023-11-26T05:39:32.481Z,3.30
2023-11-26T05:42:00.411Z,3.30
2023-11-26T05:44:28.360Z,3.30
2023-11-26T05:46:56.293Z,3.40
2023-11-26T05:49:25.515Z,3.30
2023-11-26T05:51:53.296Z,3.40
2023-11-26T05:54:21.748Z,3.60
2023-11-26T05:56:49.613Z,3.40
2023-11-26T05:59:17.377Z,3.40
2023-11-26T06:01:45.543Z,3.50
2023-11-26T06:04:13.501Z,3.30
2023-11-26T06:06:44.331Z,3.50
2023-11-26T06:09:12.904Z,3.30
2023-11-26T06:11:40.970Z,3.50
2023-11-26T06:14:08.838Z,3.20
2023-11-26T06:16:36.599Z,3.50
2023-11-26T06:19:04.359Z,3.30
2023-11-26T06:21:32.148Z,3.60
2023-11-26T06:24:01.586Z,3.50
2023-11-26T06:26:29.804Z,3.30
2023-11-26T06:28:57.679Z,3.50
2023-11-26T06:31:26.301Z,3.30
2023-11-26T06:33:54.137Z,3.30
2023-11-26T06:36:23.297Z,3.70
2023-11-26T06:38:52.113Z,3.60
2023-11-26T06:41:25.932Z,3.60
2023-11-26T06:43:54.832Z,3.60
2023-11-26T06:46:23.251Z,3.40
2023-11-26T06:48:51.817Z,3.60
2023-11-26T06:51:20.041Z,3.60
2023-11-26T06:53:48.739Z,3.40
2023-11-26T06:56:17.326Z,3.60
2023-11-26T06:58:47.793Z,3.60
2023-11-26T07:01:16.362Z,3.70
2023-11-26T07:03:45.164Z,3.70
2023-11-26T07:06:13.910Z,3.10
2023-11-26T07:08:44.013Z,3.70
2023-11-26T07:11:18.842Z,3.80
2023-11-26T07:13:49.828Z,3.60
2023-11-26T07:16:19.628Z,3.70
2023-11-26T07:18:47.819Z,3.60
2023-11-26T07:21:16.743Z,3.70
2023-11-26T07:23:45.280Z,3.70
2023-11-26T07:26:13.509Z,3.80
2023-11-26T07:28:41.555Z,3.90
2023-11-26T07:31:16.325Z,3.90
2023-11-26T07:33:44.390Z,3.60
2023-11-26T07:36:17.063Z,3.80
2023-11-26T07:38:45.126Z,3.90
2023-11-26T07:41:12.924Z,3.80
2023-11-26T07:43:41.613Z,3.90
2023-11-26T07:46:10.313Z,4.00
2023-11-26T07:48:43.595Z,4.00
2023-11-26T07:51:11.549Z,3.80
2023-11-26T07:53:39.772Z,3.50
2023-11-26T07:56:09.150Z,4.00
2023-11-26T07:58:37.147Z,4.10
2023-11-26T08:01:06.052Z,4.20
2023-11-26T08:03:34.927Z,4.10
2023-11-26T08:06:04.726Z,4.00
2023-11-26T08:08:37.249Z,4.10
2023-11-26T08:11:10.622Z,4.10
2023-11-26T08:13:40.186Z,4.20
2023-11-26T08:16:10.441Z,4.30
2023-11-26T08:18:38.750Z,4.30
2023-11-26T08:21:08.633Z,4.30
2023-11-26T08:23:41.488Z,4.20
2023-11-26T08:26:13.828Z,4.60
2023-11-26T08:28:43.883Z,4.60
2023-11-26T08:31:12.718Z,4.70
2023-11-26T08:33:43.871Z,4.80
2023-11-26T08:36:16.521Z,4.50
2023-11-26T08:38:44.733Z,4.50
2023-11-26T08:41:13.004Z,4.50
2023-11-26T08:43:42.633Z,4.70
2023-11-26T08:46:14.106Z,4.80
2023-11-26T08:48:43.986Z,4.80
2023-11-26T08:51:13.603Z,5.20
2023-11-26T08:53:41.668Z,5.30
2023-11-26T08:56:10.407Z,5.30
2023-11-26T08:58:38.207Z,5.50
2023-11-26T09:01:07.769Z,5.20
2023-11-26T09:03:38.536Z,5.60
2023-11-26T09:06:08.887Z,5.60
2023-11-26T09:08:39.421Z,5.80
2023-11-26T09:11:09.822Z,5.60
2023-11-26T09:13:38.862Z,5.60
2023-11-26T09:16:07.994Z,5.70
2023-11-26T09:18:38.657Z,5.50
2023-11-26T09:21:07.923Z,5.50
2023-11-26T09:23:37.414Z,5.60
2023-11-26T09:26:07.942Z,5.60
2023-11-26T09:28:37.873Z,5.30
2023-11-26T09:31:07.355Z,5.60
2023-11-26T09:33:39.272Z,5.40
2023-11-26T09:36:08.213Z,5.80
2023-11-26T09:38:39.094Z,5.70
2023-11-26T09:41:08.527Z,5.60
2023-11-26T09:43:36.448Z,5.90
2023-11-26T09:46:05.486Z,5.70
2023-11-26T09:48:33.468Z,5.70
2023-11-26T09:51:01.694Z,5.90
2023-11-26T09:53:30.388Z,5.80
2023-11-26T09:55:58.882Z,5.70
2023-11-26T09:58:28.098Z,5.70
2023-11-26T10:03:25.663Z,6.10
2023-11-26T10:06:10.655Z,5.50
2023-11-26T10:08:39.048Z,6.30
2023-11-26T10:11:07.089Z,6.30
2023-11-26T10:13:40.719Z,6.50
2023-11-26T10:16:10.001Z,6.60
2023-11-26T10:18:46.550Z,6.50
2023-11-26T10:21:14.484Z,6.60
2023-11-26T10:23:43.992Z,6.90
2023-11-26T10:26:23.742Z,6.90
2023-11-26T10:29:10.027Z,6.70
2023-11-26T10:31:38.357Z,6.80
2023-11-26T10:34:14.238Z,6.90
2023-11-26T10:36:43.131Z,6.70
2023-11-26T10:39:12.803Z,7.30
2023-11-26T10:41:41.531Z,6.90
2023-11-26T10:44:12.537Z,6.90
2023-11-26T10:46:44.435Z,7.00
2023-11-26T10:49:17.610Z,6.90
2023-11-26T10:52:03.909Z,7.20
2023-11-26T10:54:38.253Z,6.70
2023-11-26T10:57:18.834Z,7.20
2023-11-26T10:59:52.065Z,7.50
2023-11-26T11:02:21.078Z,7.00
2023-11-26T11:04:49.661Z,7.60
2023-11-26T11:07:17.658Z,7.10
2023-11-26T11:09:53.900Z,7.80
2023-11-26T11:12:27.085Z,7.90
2023-11-26T11:14:58.137Z,8.00
2023-11-26T11:17:30.942Z,8.00
2023-11-26T11:19:58.882Z,7.70
2023-11-26T11:22:36.826Z,8.10
2023-11-26T11:25:12.276Z,7.70
2023-11-26T11:27:49.923Z,7.90
2023-11-26T11:31:02.829Z,7.60
2023-11-26T11:33:32.031Z,7.80
2023-11-26T11:35:59.910Z,7.70
2023-11-26T11:38:31.857Z,7.70
2023-11-26T11:41:03.929Z,7.70
2023-11-26T11:43:32.170Z,7.70
2023-11-26T11:46:01.216Z,7.80
2023-11-26T11:48:58.005Z,7.90
2023-11-26T11:51:37.106Z,7.90
2023-11-26T11:54:36.233Z,7.90
2023-11-26T11:57:05.097Z,8.30
2023-11-26T11:59:33.060Z,8.50
2023-11-26T12:02:04.411Z,8.70
2023-11-26T12:04:43.852Z,8.80
2023-11-26T12:07:12.231Z,8.60
2023-11-26T12:09:41.418Z,8.70
2023-11-26T12:12:10.281Z,8.50
2023-11-26T12:14:38.500Z,8.60
2023-11-26T12:17:08.620Z,8.30
2023-11-26T12:19:42.540Z,8.30
2023-11-26T12:22:11.555Z,8.10
2023-11-26T12:24:41.609Z,8.10
2023-11-26T12:27:22.906Z,7.90
2023-11-26T12:29:50.755Z,7.30
2023-11-26T12:32:26.972Z,8.00
2023-11-26T12:35:01.900Z,8.00
2023-11-26T12:37:30.150Z,8.10
2023-11-26T12:39:58.380Z,7.90
2023-11-26T12:42:27.694Z,8.00
2023-11-26T12:44:55.817Z,7.60
2023-11-26T12:47:24.729Z,8.00
2023-11-26T12:50:00.484Z,8.10
2023-11-26T12:52:33.449Z,7.60
2023-11-26T12:55:05.054Z,7.70
2023-11-26T12:57:39.540Z,7.60
2023-11-26T13:00:11.922Z,7.90
2023-11-26T13:02:40.183Z,7.60
2023-11-26T13:05:31.963Z,7.40
2023-11-26T13:08:00.794Z,7.30
2023-11-26T13:10:45.851Z,7.30
2023-11-26T13:13:14.602Z,7.50
2023-11-26T13:15:42.971Z,7.30
2023-11-26T13:18:13.737Z,7.30
2023-11-26T13:20:46.751Z,7.20
2023-11-26T13:23:14.727Z,7.40
2023-11-26T13:25:42.960Z,7.20
2023-11-26T13:28:11.100Z,7.00
2023-11-26T13:30:42.144Z,7.30
2023-11-26T13:33:11.086Z,7.40
2023-11-26T13:35:39.873Z,7.10
2023-11-26T13:38:10.040Z,7.00
2023-11-26T13:40:38.943Z,6.80
2023-11-26T13:43:07.339Z,7.00
2023-11-26T13:45:35.706Z,7.10
2023-11-26T13:48:10.764Z,7.00
2023-11-26T13:50:39.778Z,7.10
2023-11-26T13:53:10.507Z,7.10
2023-11-26T13:55:38.504Z,6.90
2023-11-26T13:58:06.460Z,6.90
2023-11-26T14:00:34.569Z,6.70
2023-11-26T14:03:03.712Z,6.80
2023-11-26T14:05:31.774Z,6.70
2023-11-26T14:07:59.574Z,6.90
2023-11-26T14:10:31.794Z,6.80
2023-11-26T14:13:00.612Z,6.70
2023-11-26T14:15:28.960Z,6.50
2023-11-26T14:17:59.772Z,6.90
2023-11-26T14:20:28.164Z,6.60
2023-11-26T14:22:56.650Z,6.70
2023-11-26T14:25:24.577Z,6.90
2023-11-26T14:27:55.970Z,6.80
2023-11-26T14:30:24.201Z,6.60
2023-11-26T14:32:53.951Z,6.50
2023-11-26T14:35:22.003Z,6.70
2023-11-26T14:37:49.810Z,6.80
2023-11-26T14:40:19.202Z,6.60
2023-11-26T14:42:47.855Z,6.60
2023-11-26T14:45:17.312Z,6.80
2023-11-26T14:47:46.559Z,6.80
2023-11-26T14:50:15.310Z,6.90
2023-11-26T14:52:43.188Z,6.70
2023-11-26T14:55:14.379Z,6.80
2023-11-26T14:57:43.347Z,7.00
2023-11-26T15:00:13.115Z,6.50
2023-11-26T15:02:45.153Z,6.50
2023-11-26T15:05:13.624Z,6.70
2023-11-26T15:07:42.461Z,6.60
2023-11-26T15:10:12.098Z,6.70
2023-11-26T15:12:40.259Z,6.60
2023-11-26T15:15:11.634Z,6.70
2023-11-26T15:17:42.817Z,6.50
2023-11-26T15:20:13.472Z,6.80
2023-11-26T15:22:42.474Z,6.50
2023-11-26T15:25:12.654Z,6.40
2023-11-26T15:27:40.658Z,6.60
2023-11-26T15:30:09.970Z,6.50
2023-11-26T15:32:38.156Z,6.60
2023-11-26T15:35:09.441Z,6.30
2023-11-26T15:37:39.081Z,6.80
2023-11-26T15:40:11.439Z,6.70
2023-11-26T15:42:39.593Z,6.40
2023-11-26T15:45:11.568Z,6.50
2023-11-26T15:47:41.160Z,6.30
2023-11-26T15:50:12.349Z,6.50
2023-11-26T15:52:40.250Z,6.30
2023-11-26T15:55:10.770Z,6.50
2023-11-26T15:57:38.952Z,6.50
2023-11-26T16:00:08.709Z,6.40
2023-11-26T16:02:36.585Z,6.40
2023-11-26T16:05:05.492Z,6.30
2023-11-26T16:07:34.698Z,6.30
2023-11-26T16:10:02.534Z,6.20
2023-11-26T16:12:30.358Z,6.40
2023-11-26T16:14:58.094Z,6.20
2023-11-26T16:17:31.938Z,6.20
2023-11-26T16:20:04.496Z,6.30
2023-11-26T16:22:36.112Z,6.30
2023-11-26T16:25:05.175Z,6.20
2023-11-26T16:27:33.097Z,6.40
2023-11-26T16:30:03.507Z,5.80
2023-11-26T16:32:32.221Z,5.70
2023-11-26T16:34:59.998Z,6.40
2023-11-26T16:37:29.613Z,6.10
2023-11-26T16:39:58.917Z,6.40
2023-11-26T16:42:26.781Z,6.40
2023-11-26T16:44:54.571Z,6.30
2023-11-26T16:47:22.400Z,6.30
2023-11-26T16:49:50.143Z,6.40
2023-11-26T16:52:18.699Z,6.20
2023-11-26T16:54:46.641Z,6.40
2023-11-26T16:57:18.845Z,6.30
2023-11-26T16:59:46.678Z,6.50
2023-11-26T17:02:33.676Z,6.30
2023-11-26T17:05:06.825Z,6.30
2023-11-26T17:07:45.476Z,6.50
2023-11-26T17:10:13.395Z,6.30
2023-11-26T17:12:43.511Z,6.40
2023-11-26T17:15:11.385Z,6.40
2023-11-26T17:17:39.370Z,6.40
2023-11-26T17:20:09.285Z,5.80
2023-11-26T17:22:37.027Z,6.20
2023-11-26T17:25:06.125Z,6.30
2023-11-26T17:27:34.132Z,6.60
2023-11-26T17:30:07.221Z,6.40
2023-11-26T17:32:35.238Z,6.40
2023-11-26T17:35:03.030Z,6.30
2023-11-26T17:37:30.850Z,6.20
2023-11-26T17:39:58.739Z,6.10
2023-11-26T17:42:28.754Z,6.40
2023-11-26T17:44:56.711Z,6.50
2023-11-26T17:47:25.918Z,6.30
2023-11-26T17:49:53.733Z,6.40
2023-11-26T17:52:21.554Z,6.50
2023-11-26T17:54:49.366Z,6.30
2023-11-26T17:57:19.432Z,6.40
2023-11-26T17:59:47.293Z,6.30
2023-11-26T18:02:15.198Z,6.30
2023-11-26T18:04:44.506Z,6.30
2023-11-26T18:07:12.870Z,6.40
2023-11-26T18:09:40.896Z,6.30
2023-11-26T18:12:09.571Z,6.40
2023-11-26T18:14:37.320Z,6.30
2023-11-26T18:17:05.401Z,6.40
2023-11-26T18:19:33.554Z,6.30
2023-11-26T18:22:03.358Z,6.40
2023-11-26T18:24:32.965Z,6.30
2023-11-26T18:27:01.503Z,6.10
2023-11-26T18:29:29.445Z,6.40
2023-11-26T18:31:58.010Z,6.40
2023-11-26T18:34:26.942Z,6.30
2023-11-26T18:36:54.717Z,6.30
2023-11-26T18:39:23.834Z,6.40
2023-11-26T18:41:51.588Z,6.10
2023-11-26T18:44:19.458Z,6.30
2023-11-26T18:46:47.304Z,6.30
2023-11-26T18:49:15.103Z,6.40
2023-11-26T18:51:46.742Z,6.30
2023-11-26T18:54:15.211Z,6.30
2023-11-26T18:56:45.438Z,6.20
2023-11-26T18:59:18.353Z,6.30
2023-11-26T19:01:46.189Z,5.70
2023-11-26T19:04:14.306Z,6.10
2023-11-26T19:06:42.137Z,6.10
2023-11-26T19:09:10.106Z,6.30
2023-11-26T19:11:37.907Z,6.20
2023-11-26T19:14:07.465Z,6.10
2023-11-26T19:16:35.754Z,6.10
2023-11-26T19:19:03.699Z,6.20
2023-11-26T19:21:31.742Z,6.10
2023-11-26T19:23:59.541Z,6.20
2023-11-26T19:26:27.421Z,6.00
2023-11-26T19:28:55.246Z,6.20
2023-11-26T19:31:25.357Z,6.00
2023-11-26T19:33:56.328Z,6.30
2023-11-26T19:36:25.959Z,5.50
2023-11-26T19:38:54.111Z,6.40
2023-11-26T19:41:22.253Z,6.10
2023-11-26T19:43:50.532Z,6.10
2023-11-26T19:46:19.338Z,6.10
2023-11-26T19:48:49.521Z,6.00
2023-11-26T19:51:21.122Z,6.10
2023-11-26T19:53:49.239Z,6.10
2023-11-26T19:56:18.259Z,6.00
2023-11-26T19:58:47.233Z,6.10
2023-11-26T20:01:16.070Z,6.10
2023-11-26T20:03:44.333Z,6.10
2023-11-26T20:06:13.829Z,6.40
2023-11-26T20:08:43.194Z,6.30
2023-11-26T20:11:11.042Z,6.40
2023-11-26T20:13:39.017Z,6.10
2023-11-26T20:16:07.144Z,6.30
2023-11-26T20:18:35.662Z,6.20
2023-11-26T20:21:06.788Z,6.10
2023-11-26T20:23:36.618Z,6.20
2023-11-26T20:26:04.466Z,6.00
2023-11-26T20:28:32.327Z,6.00
2023-11-26T20:31:09.025Z,6.10
2023-11-26T20:33:38.789Z,6.00
2023-11-26T20:36:08.036Z,6.00
2023-11-26T20:38:37.942Z,6.20
2023-11-26T20:41:05.970Z,6.20
2023-11-26T20:43:34.028Z,6.20
2023-11-26T20:46:01.923Z,6.00
2023-11-26T20:48:29.790Z,5.80
2023-11-26T20:50:57.586Z,6.00
2023-11-26T20:53:25.334Z,6.20
2023-11-26T20:55:54.527Z,6.20
2023-11-26T20:58:22.781Z,6.20
2023-11-26T21:00:50.830Z,5.90
2023-11-26T21:03:18.848Z,6.10
2023-11-26T21:05:46.906Z,6.10
2023-11-26T21:08:14.780Z,6.10
2023-11-26T21:10:42.970Z,6.30
2023-11-26T21:13:12.310Z,6.00
2023-11-26T21:15:41.432Z,6.20
2023-11-26T21:18:10.239Z,5.90
2023-11-26T21:20:38.391Z,5.90
2023-11-26T21:23:06.145Z,6.20
2023-11-26T21:25:33.933Z,5.90
2023-11-26T21:28:01.836Z,6.10
2023-11-26T21:30:30.995Z,6.10
2023-11-26T21:32:58.859Z,6.00
2023-11-26T21:35:28.953Z,6.10
2023-11-26T21:37:57.346Z,6.00
2023-11-26T21:40:25.389Z,6.00
2023-11-26T21:42:53.188Z,5.80
2023-11-26T21:45:21.113Z,6.00
2023-11-26T21:47:50.362Z,5.90
2023-11-26T21:50:18.297Z,5.90
2023-11-26T21:52:46.986Z,5.80
2023-11-26T21:55:15.047Z,5.70
2023-11-26T21:57:42.851Z,6.00
2023-11-26T22:00:12.254Z,5.70
2023-11-26T22:02:40.119Z,5.80
2023-11-26T22:05:09.769Z,6.00
2023-11-26T22:07:37.599Z,5.90
2023-11-26T22:10:05.994Z,5.70
2023-11-26T22:12:33.794Z,6.00
2023-11-26T22:15:01.669Z,5.70
2023-11-26T22:17:29.548Z,5.80
2023-11-26T22:19:57.344Z,6.00
2023-11-26T22:22:26.449Z,5.80
2023-11-26T22:24:56.804Z,5.90
2023-11-26T22:27:24.878Z,5.80
2023-11-26T22:29:52.636Z,5.90
2023-11-26T22:32:20.428Z,5.70
2023-11-26T22:34:48.384Z,5.80
2023-11-26T22:37:16.297Z,5.60
2023-11-26T22:39:45.506Z,5.80
2023-11-26T22:42:14.021Z,5.70
2023-11-26T22:44:41.939Z,5.60
2023-11-26T22:47:10.431Z,5.30
2023-11-26T22:49:38.290Z,5.40
2023-11-26T22:52:07.169Z,5.20
2023-11-26T22:54:35.090Z,5.50
2023-11-26T22:57:05.041Z,5.30
2023-11-26T22:59:32.775Z,5.30
2023-11-26T23:02:02.047Z,5.40
2023-11-26T23:04:32.050Z,5.40
2023-11-26T23:06:59.869Z,5.30
2023-11-26T23:09:27.649Z,5.60
2023-11-26T23:11:55.646Z,5.20
2023-11-26T23:14:24.815Z,5.60
2023-11-26T23:16:52.582Z,5.40
2023-11-26T23:19:20.414Z,5.60
2023-11-26T23:21:48.296Z,5.50
2023-11-26T23:24:16.101Z,5.30
2023-11-26T23:26:44.241Z,5.30
2023-11-26T23:29:12.016Z,5.30
2023-11-26T23:31:41.817Z,5.30
2023-11-26T23:34:09.693Z,5.20
2023-11-26T23:36:37.549Z,5.30
2023-11-26T23:39:07.178Z,5.30
2023-11-26T23:41:34.999Z,5.30
2023-11-26T23:44:02.794Z,5.30
2023-11-26T23:46:30.689Z,5.50
2023-11-26T23:49:00.059Z,5.70
2023-11-26T23:51:27.847Z,5.30
2023-11-26T23:53:56.044Z,5.60
2023-11-26T23:56:23.853Z,5.30
2023-11-26T23:58:54.025Z,5.20
